Decatur Airport Decatur US
ICAO: KDEC
IATA: DEC
Category: Medium
Scheduled Services: Yes

Elevation: 682 ft
TransAlt. 18000 ft.

Airport Communications:
CHAMPAIGN APP/DEP:132.85
ATIS:126.35
CTAF:118.9
GND:121.75
ST LOUIS RDO:122.3
TWR:118.9
UNICOM:122.95

KDEC Zoom In..

If you have problems with the map follow the link
https://www.worldairports.se/pages/airport.php?
ICAO=KDEC

Runways:

(A) RW 06 length 8496 ft width 150 ft
ILS 110.90 / hdg 60

(B) RW 12 length 6799 ft width 150 ft
---- / hdg 120

(C) RW 18 length 5298 ft width 150 ft
---- / hdg 180

(D) RW 24 length 8496 ft width 150 ft
---- / hdg 240

(E) RW 30 length 6799 ft width 150 ft
---- / hdg 300

(F) RW 36 length 5298 ft width 150 ft
---- / hdg 360

Location; KDEC
Day. 14 / Time. 10.54 Zulu
* Altimeter: 30.53
* Temperature: -10° c. -14°f.
* Wind from: 020° Speed 05 kn.
Dewpoint: -13° c.
Visibility: 10 Statute Miles.
Clouds: Clear (automated report).

KDEC 141054Z AUTO 02005KT 10SM CLR M10/M13 A3053 RMK AO2 SLP351 T11001128


Wind From 020°
Speed 05 kn.

 
 
jpsmedia.com for Web Design worldairports.se 2018   terms of use